Time;durP1;ratioP1;P1;durP2;ratioP2;P2;SDS_P1;SDS_P2;PMS_P1;PMS_P2;Temp;Humidity;BMP_temperature;BMP_pressure;BME280_temperature;BME280_humidity;BME280_pressure;Samples;Min_cycle;Max_cycle;Signal;HPM_P1;HPM_P2
2023/07/05 00:01:13;;;;;;;5.00;4.30;;;17.80;99.90;;;;;;5073045;28;20455;-76
2023/07/05 00:03:39;;;;;;;5.80;4.07;;;17.80;99.90;;;;;;5090755;28;20227;-77
2023/07/05 00:06:05;;;;;;;4.97;3.60;;;17.90;99.90;;;;;;5127795;28;20432;-75
2023/07/05 00:08:33;;;;;;;4.50;3.57;;;17.90;99.90;;;;;;5124219;28;20415;-76
2023/07/05 00:11:06;;;;;;;6.00;4.10;;;17.90;99.90;;;;;;5095557;28;20226;-77
2023/07/05 00:13:32;;;;;;;8.43;4.23;;;17.90;99.90;;;;;;5079141;28;20422;-73
2023/07/05 00:15:59;;;;;;;4.43;3.90;;;18.00;99.90;;;;;;5086347;28;20461;-73
2023/07/05 00:18:25;;;;;;;5.83;3.70;;;18.00;99.90;;;;;;5091198;28;20504;-72
2023/07/05 00:20:51;;;;;;;4.83;3.30;;;18.10;99.90;;;;;;5115706;28;20499;-72
2023/07/05 00:23:18;;;;;;;4.10;3.70;;;18.10;99.90;;;;;;5101462;28;20438;-74
2023/07/05 00:25:44;;;;;;;4.30;3.30;;;18.10;99.90;;;;;;5115486;28;20447;-72
2023/07/05 00:28:09;;;;;;;6.30;4.00;;;18.20;99.90;;;;;;5116745;28;20493;-72
2023/07/05 00:30:35;;;;;;;4.33;3.33;;;18.20;99.90;;;;;;5071246;28;20303;-72
2023/07/05 00:33:00;;;;;;;4.60;3.73;;;18.20;99.90;;;;;;5090450;28;20194;-72
2023/07/05 00:35:26;;;;;;;5.37;3.23;;;18.30;99.90;;;;;;5099531;28;20240;-72
2023/07/05 00:37:52;;;;;;;4.57;3.80;;;18.20;99.90;;;;;;5103818;28;20488;-72
2023/07/05 00:40:19;;;;;;;3.93;3.23;;;18.30;99.90;;;;;;5119299;28;20207;-71
2023/07/05 00:42:44;;;;;;;4.63;3.10;;;18.30;99.90;;;;;;5119799;28;20214;-71
2023/07/05 00:45:10;;;;;;;3.40;2.87;;;18.30;99.90;;;;;;5082290;28;20446;-73
2023/07/05 00:47:38;;;;;;;4.97;3.33;;;18.30;99.90;;;;;;5079127;28;20877;-71
2023/07/05 00:50:22;;;;;;;3.30;2.50;;;18.30;99.90;;;;;;5115631;28;20214;-73
2023/07/05 00:52:49;;;;;;;3.50;2.60;;;18.30;99.90;;;;;;5119210;28;20457;-73
2023/07/05 00:55:16;;;;;;;3.43;2.90;;;18.30;99.90;;;;;;5119213;28;20407;-73
2023/07/05 00:57:41;;;;;;;2.80;2.40;;;18.20;99.90;;;;;;5116365;28;20558;-72
2023/07/05 01:00:12;;;;;;;3.23;2.63;;;18.10;99.90;;;;;;5097271;28;20495;-72
2023/07/05 01:02:40;;;;;;;3.70;2.30;;;18.10;99.90;;;;;;5104407;28;20184;-72
2023/07/05 01:05:08;;;;;;;3.63;2.57;;;17.90;99.90;;;;;;5107918;28;20730;-72
2023/07/05 01:07:33;;;;;;;3.10;2.40;;;17.80;99.90;;;;;;5098642;28;20422;-72
2023/07/05 01:10:00;;;;;;;4.83;2.67;;;17.70;99.90;;;;;;5116362;28;20421;-72
2023/07/05 01:13:04;;;;;;;2.30;2.07;;;17.60;99.90;;;;;;5099093;28;20218;-73
2023/07/05 01:15:55;;;;;;;3.60;2.10;;;17.60;99.90;;;;;;5052725;28;20520;-72
2023/07/05 01:18:41;;;;;;;2.10;1.87;;;17.50;99.90;;;;;;5101029;28;20420;-72
2023/07/05 01:21:39;;;;;;;3.03;2.20;;;17.50;99.90;;;;;;5089129;28;20483;-73
2023/07/05 01:24:48;;;;;;;2.73;2.20;;;17.50;99.90;;;;;;5102919;28;20457;-73
2023/07/05 01:27:32;;;;;;;4.97;2.70;;;17.40;99.90;;;;;;5104314;28;20499;-72
2023/07/05 01:30:16;;;;;;;2.50;2.30;;;17.40;99.90;;;;;;5075154;28;20468;-72
2023/07/05 01:32:48;;;;;;;3.30;2.57;;;17.40;99.90;;;;;;5088772;28;20709;-72
2023/07/05 01:35:18;;;;;;;3.43;2.87;;;17.50;99.90;;;;;;5077173;28;20416;-71
2023/07/05 01:37:45;;;;;;;3.20;2.90;;;17.50;99.90;;;;;;5059693;28;20517;-72
2023/07/05 01:40:17;;;;;;;4.00;2.47;;;17.50;99.90;;;;;;5105068;28;20404;-71
2023/07/05 01:42:46;;;;;;;3.33;2.60;;;17.50;99.90;;;;;;5071962;28;20444;-71
2023/07/05 01:45:13;;;;;;;3.43;2.70;;;17.60;99.90;;;;;;5102936;28;20516;-71
2023/07/05 01:47:59;;;;;;;3.50;2.80;;;17.60;99.90;;;;;;5074836;28;20894;-72
2023/07/05 01:50:34;;;;;;;2.93;2.33;;;17.60;99.90;;;;;;5099459;28;20467;-73
2023/07/05 01:53:12;;;;;;;2.80;2.40;;;17.60;99.90;;;;;;5102952;28;20420;-72
2023/07/05 01:56:07;;;;;;;2.50;1.83;;;17.60;99.90;;;;;;5085292;28;20428;-73
2023/07/05 01:58:38;;;;;;;3.37;2.70;;;17.70;99.90;;;;;;5084282;28;20776;-73
2023/07/05 02:01:06;;;;;;;2.73;2.10;;;17.70;99.90;;;;;;5069312;28;20436;-72
2023/07/05 02:03:33;;;;;;;4.23;2.30;;;17.80;99.90;;;;;;5094322;28;20457;-73
2023/07/05 02:05:59;;;;;;;2.40;2.20;;;17.80;99.90;;;;;;5099450;28;20472;-73
2023/07/05 02:08:27;;;;;;;2.70;2.10;;;17.90;99.90;;;;;;5118060;28;20800;-73
2023/07/05 02:10:55;;;;;;;3.20;1.90;;;17.90;99.90;;;;;;5072547;28;20209;-73
2023/07/05 02:13:21;;;;;;;2.40;2.20;;;18.00;99.90;;;;;;5072093;28;20373;-73
2023/07/05 02:15:50;;;;;;;2.40;1.70;;;18.00;99.90;;;;;;5095265;28;20439;-73
2023/07/05 02:18:16;;;;;;;2.23;1.87;;;18.00;99.90;;;;;;5076955;28;20650;-72
2023/07/05 02:20:42;;;;;;;2.73;2.13;;;17.90;99.90;;;;;;5091285;28;20459;-72
2023/07/05 02:23:08;;;;;;;3.20;2.23;;;17.80;99.90;;;;;;5100005;28;20813;-72
2023/07/05 02:25:35;;;;;;;3.07;2.13;;;17.70;99.90;;;;;;5118838;28;20201;-72
2023/07/05 02:28:08;;;;;;;2.53;2.30;;;17.70;99.90;;;;;;5117386;28;20180;-73
2023/07/05 02:30:39;;;;;;;2.20;1.83;;;17.60;99.90;;;;;;5097300;28;20472;-72
2023/07/05 02:33:05;;;;;;;4.13;2.40;;;17.50;99.90;;;;;;5105389;28;20443;-72
2023/07/05 02:35:39;;;;;;;2.03;1.80;;;17.50;99.90;;;;;;5108420;28;20407;-72
2023/07/05 02:38:05;;;;;;;3.80;2.13;;;17.40;99.90;;;;;;5097099;28;20438;-72
2023/07/05 02:40:32;;;;;;;3.70;2.77;;;17.30;99.90;;;;;;5096715;28;20549;-77
2023/07/05 02:42:59;;;;;;;3.07;2.33;;;17.30;99.90;;;;;;5079662;28;20865;-72
2023/07/05 02:45:26;;;;;;;5.10;2.90;;;17.20;99.90;;;;;;5093218;28;20423;-72
2023/07/05 02:47:52;;;;;;;2.77;2.57;;;17.20;99.90;;;;;;5076594;28;20712;-72
2023/07/05 02:50:18;;;;;;;3.53;2.20;;;17.00;99.90;;;;;;5092049;28;20490;-74
2023/07/05 02:52:44;;;;;;;3.37;2.03;;;16.90;99.90;;;;;;5098510;28;20444;-71
2023/07/05 02:55:10;;;;;;;3.43;2.27;;;16.90;99.90;;;;;;5115786;28;20178;-71
2023/07/05 02:57:35;;;;;;;4.20;3.03;;;16.80;99.90;;;;;;5096581;28;20415;-71
2023/07/05 03:00:02;;;;;;;3.87;2.73;;;16.70;99.90;;;;;;5084102;28;20232;-72
2023/07/05 03:02:28;;;;;;;2.73;2.30;;;16.50;99.90;;;;;;5090347;28;20464;-71
2023/07/05 03:04:53;;;;;;;3.60;2.63;;;16.30;99.90;;;;;;5117282;28;20453;-73
2023/07/05 03:07:19;;;;;;;2.80;2.13;;;16.10;99.90;;;;;;5081418;28;20226;-71
2023/07/05 03:09:48;;;;;;;3.00;2.20;;;16.00;99.90;;;;;;5078470;28;20242;-73
2023/07/05 03:12:15;;;;;;;3.70;2.53;;;15.90;99.90;;;;;;5113527;28;20604;-72
2023/07/05 03:14:40;;;;;;;4.00;2.53;;;15.70;99.90;;;;;;5092008;28;20705;-71
2023/07/05 03:17:06;;;;;;;6.10;2.30;;;15.60;99.90;;;;;;5097971;28;20430;-72
2023/07/05 03:19:32;;;;;;;2.60;1.90;;;15.40;99.90;;;;;;5098198;28;20214;-73
2023/07/05 03:21:58;;;;;;;4.23;1.73;;;15.30;99.90;;;;;;5091080;28;20418;-72
2023/07/05 03:24:24;;;;;;;4.17;1.80;;;15.20;99.90;;;;;;5101700;28;20195;-73
2023/07/05 03:26:53;;;;;;;2.40;2.20;;;15.10;99.90;;;;;;5102332;28;20413;-72
2023/07/05 03:29:19;;;;;;;2.37;2.17;;;15.00;99.90;;;;;;5097827;28;20223;-72
2023/07/05 03:31:45;;;;;;;2.37;1.70;;;15.00;99.90;;;;;;5075910;28;20409;-72
2023/07/05 03:34:10;;;;;;;2.73;1.70;;;14.90;99.90;;;;;;5115339;28;20438;-72
2023/07/05 03:36:37;;;;;;;3.10;2.40;;;14.90;99.90;;;;;;5097917;28;20229;-72
2023/07/05 03:39:02;;;;;;;2.67;2.20;;;14.80;99.90;;;;;;5094683;28;20421;-72
2023/07/05 03:41:28;;;;;;;2.63;1.63;;;14.80;99.90;;;;;;5116295;28;20243;-73
2023/07/05 03:44:00;;;;;;;2.33;1.70;;;14.70;99.90;;;;;;5083553;28;20184;-72
2023/07/05 03:46:26;;;;;;;4.40;1.83;;;14.70;99.90;;;;;;5094988;28;20271;-72
2023/07/05 03:48:52;;;;;;;7.73;2.40;;;14.60;99.90;;;;;;5102478;28;20692;-72
2023/07/05 03:51:20;;;;;;;2.90;1.50;;;14.50;99.90;;;;;;5102135;28;20441;-73
2023/07/05 03:53:56;;;;;;;2.93;2.23;;;14.40;99.90;;;;;;5102907;28;20240;-73
2023/07/05 03:56:23;;;;;;;3.97;2.40;;;14.40;99.90;;;;;;5109536;28;20585;-73
2023/07/05 03:58:49;;;;;;;7.37;2.60;;;14.40;99.90;;;;;;5114167;28;20468;-72
2023/07/05 04:01:23;;;;;;;3.37;1.77;;;14.30;99.90;;;;;;5085073;28;20487;-72
2023/07/05 04:03:51;;;;;;;3.80;2.00;;;14.30;99.90;;;;;;5093520;28;20223;-73
2023/07/05 04:06:17;;;;;;;5.33;2.53;;;14.30;99.90;;;;;;5096002;28;20433;-72
2023/07/05 04:08:43;;;;;;;4.53;2.10;;;14.20;99.90;;;;;;5106167;28;20410;-72
2023/07/05 04:11:09;;;;;;;5.47;2.43;;;14.10;99.90;;;;;;5092048;28;20573;-73
2023/07/05 04:13:35;;;;;;;3.90;2.10;;;13.90;99.90;;;;;;5103262;28;20445;-72
2023/07/05 04:16:03;;;;;;;6.20;2.57;;;13.80;99.90;;;;;;5084189;28;20196;-72
2023/07/05 04:18:30;;;;;;;3.37;2.40;;;13.70;99.90;;;;;;5102094;28;20844;-72
2023/07/05 04:20:56;;;;;;;3.00;2.30;;;13.60;99.90;;;;;;5116028;28;20496;-72
2023/07/05 04:23:23;;;;;;;2.80;1.73;;;13.50;99.90;;;;;;5098869;28;20459;-72
2023/07/05 04:25:48;;;;;;;6.40;2.93;;;13.40;99.90;;;;;;5108153;28;20422;-74
2023/07/05 04:28:14;;;;;;;2.93;1.90;;;13.30;99.90;;;;;;5114799;28;20815;-71
2023/07/05 04:30:39;;;;;;;3.50;2.30;;;13.30;99.90;;;;;;5087194;28;20283;-72
2023/07/05 04:33:05;;;;;;;4.33;2.43;;;13.20;99.90;;;;;;5113388;28;20193;-72
2023/07/05 04:35:31;;;;;;;3.70;2.60;;;13.20;99.90;;;;;;5115434;28;20278;-73
2023/07/05 04:37:56;;;;;;;4.27;2.87;;;13.20;99.90;;;;;;5096480;28;20200;-72
2023/07/05 04:40:22;;;;;;;4.33;2.37;;;13.20;99.90;;;;;;5103933;28;20282;-72
2023/07/05 04:42:48;;;;;;;4.43;2.27;;;13.20;99.90;;;;;;5116773;28;20242;-71
2023/07/05 04:45:14;;;;;;;5.20;3.43;;;13.20;99.90;;;;;;5091088;28;20880;-73
2023/07/05 04:47:40;;;;;;;3.50;2.73;;;13.20;99.90;;;;;;5079805;28;20192;-72
2023/07/05 04:50:06;;;;;;;2.60;2.30;;;13.20;99.90;;;;;;5105602;28;20445;-71
2023/07/05 04:52:31;;;;;;;4.43;3.27;;;13.30;99.90;;;;;;5115463;28;20348;-72
2023/07/05 04:54:57;;;;;;;4.30;2.70;;;13.40;99.90;;;;;;5099220;28;20232;-73
2023/07/05 04:57:22;;;;;;;5.60;3.10;;;13.40;99.90;;;;;;5111616;28;20241;-73
2023/07/05 04:59:51;;;;;;;5.30;3.63;;;13.60;99.90;;;;;;5116338;28;20531;-73
2023/07/05 05:02:18;;;;;;;9.43;3.63;;;13.70;99.90;;;;;;5101479;28;20298;-73
2023/07/05 05:04:43;;;;;;;4.10;2.87;;;13.80;99.90;;;;;;5103827;28;20907;-75
2023/07/05 05:07:11;;;;;;;4.77;3.00;;;13.70;99.90;;;;;;5113621;28;20416;-75
2023/07/05 05:09:38;;;;;;;4.00;3.10;;;13.70;99.90;;;;;;5125266;28;20200;-76
2023/07/05 05:12:05;;;;;;;3.97;3.47;;;13.80;99.90;;;;;;5105978;28;20417;-73
2023/07/05 05:14:31;;;;;;;3.93;3.00;;;14.00;99.90;;;;;;5068261;28;20422;-73
2023/07/05 05:16:57;;;;;;;3.87;3.10;;;14.60;99.90;;;;;;5081670;28;20430;-73
2023/07/05 05:19:23;;;;;;;5.47;3.20;;;14.90;99.90;;;;;;5127093;28;20483;-75
2023/07/05 05:21:48;;;;;;;4.47;3.50;;;15.60;99.90;;;;;;5107673;28;20246;-74
2023/07/05 05:24:14;;;;;;;5.30;3.80;;;16.30;99.90;;;;;;5126119;28;20176;-75
2023/07/05 05:26:39;;;;;;;5.57;3.23;;;16.90;99.90;;;;;;5092739;28;20170;-76
2023/07/05 05:29:05;;;;;;;6.23;3.27;;;17.10;99.90;;;;;;5091078;28;20272;-74
2023/07/05 05:31:31;;;;;;;4.93;3.70;;;17.20;99.90;;;;;;5098724;28;20202;-72
2023/07/05 05:33:56;;;;;;;4.20;2.90;;;17.20;99.90;;;;;;5125216;28;20182;-74
2023/07/05 05:36:23;;;;;;;4.37;3.17;;;17.20;99.90;;;;;;5105706;28;20429;-73
2023/07/05 05:38:49;;;;;;;6.90;3.53;;;17.30;99.90;;;;;;5090969;28;20630;-75
2023/07/05 05:41:15;;;;;;;5.70;3.70;;;17.30;99.90;;;;;;5125375;28;20452;-75
2023/07/05 05:43:41;;;;;;;4.77;3.10;;;17.30;99.90;;;;;;5126914;28;20191;-74
2023/07/05 05:46:07;;;;;;;7.07;3.50;;;17.30;99.40;;;;;;5090235;28;20256;-77
2023/07/05 05:48:33;;;;;;;5.17;3.10;;;17.80;89.30;;;;;;5084916;28;20431;-74
2023/07/05 05:50:59;;;;;;;4.73;3.40;;;18.00;85.30;;;;;;5129568;28;20465;-75
2023/07/05 05:53:24;;;;;;;6.57;3.50;;;18.30;90.30;;;;;;5109385;28;20188;-77
2023/07/05 05:55:50;;;;;;;6.20;3.10;;;18.70;83.40;;;;;;5093704;28;20250;-75
2023/07/05 05:58:15;;;;;;;5.83;3.70;;;19.20;76.10;;;;;;5109091;28;20189;-74
2023/07/05 06:00:41;;;;;;;5.70;3.60;;;19.60;62.40;;;;;;5082630;28;20232;-75
2023/07/05 06:03:07;;;;;;;4.90;2.90;;;20.10;60.30;;;;;;5070862;28;20193;-74
2023/07/05 06:05:33;;;;;;;5.37;3.53;;;20.50;58.80;;;;;;5102875;28;20188;-74
2023/07/05 06:07:59;;;;;;;5.43;2.80;;;20.90;56.70;;;;;;5121681;28;20188;-77
2023/07/05 06:10:25;;;;;;;5.80;3.53;;;21.10;55.20;;;;;;5128033;28;20494;-77
2023/07/05 06:12:51;;;;;;;4.70;2.67;;;21.10;53.60;;;;;;5127203;28;20406;-76
2023/07/05 06:15:16;;;;;;;3.27;2.77;;;20.80;53.20;;;;;;5097531;28;20217;-75
2023/07/05 06:17:42;;;;;;;10.63;3.30;;;20.40;53.60;;;;;;5092461;28;20197;-76
2023/07/05 06:20:10;;;;;;;4.57;2.80;;;19.90;54.50;;;;;;5109927;28;20219;-75
2023/07/05 06:22:36;;;;;;;5.60;3.93;;;19.20;54.70;;;;;;5110447;28;20206;-75
2023/07/05 06:25:03;;;;;;;3.50;2.63;;;18.80;56.30;;;;;;5127532;28;20771;-76
2023/07/05 06:27:28;;;;;;;4.77;2.57;;;18.60;56.70;;;;;;5098186;28;20409;-75
2023/07/05 06:29:54;;;;;;;5.77;2.90;;;18.40;57.10;;;;;;5107833;28;20447;-76
2023/07/05 06:32:20;;;;;;;5.13;2.70;;;18.40;57.60;;;;;;5087267;28;20196;-77
2023/07/05 06:34:46;;;;;;;10.83;3.03;;;18.40;57.90;;;;;;5091265;28;20241;-78
2023/07/05 06:37:11;;;;;;;7.10;3.10;;;18.30;57.70;;;;;;5092995;28;20195;-77
2023/07/05 06:39:37;;;;;;;4.87;2.90;;;18.30;58.20;;;;;;5112091;28;20203;-78
2023/07/05 06:42:04;;;;;;;4.70;2.80;;;18.20;58.60;;;;;;5112151;28;20215;-79
2023/07/05 06:44:33;;;;;;;2.83;2.20;;;18.20;59.00;;;;;;5101821;28;20846;-75
2023/07/05 06:46:58;;;;;;;5.10;2.10;;;18.10;59.10;;;;;;5077336;28;20398;-78
2023/07/05 06:49:24;;;;;;;8.30;2.70;;;18.10;59.40;;;;;;5076434;28;20219;-76
2023/07/05 06:51:50;;;;;;;2.73;2.13;;;18.20;59.60;;;;;;5092763;28;20211;-76
2023/07/05 06:54:15;;;;;;;3.80;2.40;;;18.30;59.30;;;;;;5092319;28;20178;-76
2023/07/05 06:56:41;;;;;;;4.80;2.20;;;18.40;59.00;;;;;;5092959;28;20192;-78
2023/07/05 06:59:07;;;;;;;3.93;2.20;;;18.40;59.20;;;;;;5090264;28;20214;-73
2023/07/05 07:01:34;;;;;;;5.60;2.23;;;18.30;59.60;;;;;;5092876;28;20469;-75
2023/07/05 07:04:05;;;;;;;3.80;2.20;;;18.10;60.00;;;;;;5080540;28;20290;-76
2023/07/05 07:06:31;;;;;;;4.03;2.00;;;17.90;62.50;;;;;;5053587;28;20406;-77
2023/07/05 07:08:56;;;;;;;6.70;2.10;;;17.90;62.00;;;;;;5083387;28;20428;-74
2023/07/05 07:11:22;;;;;;;4.40;2.00;;;17.90;61.10;;;;;;5079516;28;20536;-76
2023/07/05 07:13:48;;;;;;;3.93;2.30;;;18.00;61.30;;;;;;5092696;28;20209;-76
2023/07/05 07:16:15;;;;;;;3.93;2.43;;;18.00;61.50;;;;;;5089286;28;20194;-76
2023/07/05 07:18:45;;;;;;;2.60;1.73;;;18.00;60.90;;;;;;5089493;28;20191;-78
2023/07/05 07:21:12;;;;;;;2.80;1.90;;;18.00;60.90;;;;;;5092517;28;20443;-74
2023/07/05 07:23:38;;;;;;;4.10;2.37;;;18.20;61.50;;;;;;5093742;28;20523;-74
2023/07/05 07:26:24;;;;;;;4.20;1.90;;;18.40;60.60;;;;;;5091461;28;20444;-74
2023/07/05 07:28:52;;;;;;;2.50;1.93;;;18.50;60.00;;;;;;5106570;28;20372;-76
2023/07/05 07:31:24;;;;;;;3.37;1.63;;;18.50;58.70;;;;;;5095070;28;20431;-77
2023/07/05 07:33:51;;;;;;;4.20;1.67;;;18.40;58.90;;;;;;5111356;28;20405;-74
2023/07/05 07:36:25;;;;;;;4.03;2.47;;;18.30;59.10;;;;;;5112073;28;20421;-77
2023/07/05 07:38:51;;;;;;;2.60;1.70;;;18.30;59.40;;;;;;5126732;28;20415;-78
2023/07/05 07:41:20;;;;;;;3.13;1.50;;;18.20;59.30;;;;;;5096805;28;20449;-78
2023/07/05 07:43:48;;;;;;;2.73;1.90;;;18.10;59.20;;;;;;5097461;28;20353;-76
2023/07/05 07:46:16;;;;;;;2.97;2.37;;;18.10;59.00;;;;;;5099379;28;20445;-75
2023/07/05 07:48:45;;;;;;;5.97;1.80;;;18.00;59.50;;;;;;5086234;28;20398;-76
2023/07/05 07:51:11;;;;;;;3.33;1.70;;;18.10;59.70;;;;;;5066699;28;20469;-77
2023/07/05 07:53:36;;;;;;;3.03;1.50;;;18.20;59.40;;;;;;5101754;28;20513;-76
2023/07/05 07:56:13;;;;;;;3.90;1.93;;;18.30;59.00;;;;;;5121438;28;20243;-77
2023/07/05 07:58:40;;;;;;;3.47;1.83;;;18.30;59.40;;;;;;5115057;28;20613;-74
2023/07/05 08:01:16;;;;;;;5.10;1.60;;;18.20;59.00;;;;;;5106507;28;20458;-75
2023/07/05 08:03:42;;;;;;;2.13;1.47;;;18.20;58.60;;;;;;5097797;28;20478;-77
2023/07/05 08:06:09;;;;;;;2.33;1.50;;;18.10;58.80;;;;;;5068709;28;20473;-75
2023/07/05 08:08:36;;;;;;;2.27;1.60;;;18.00;59.00;;;;;;5067965;28;20408;-75
2023/07/05 08:11:03;;;;;;;3.70;1.67;;;18.00;59.40;;;;;;5068169;28;20505;-74
2023/07/05 08:13:32;;;;;;;3.00;1.37;;;17.90;59.40;;;;;;5090234;28;20423;-75
2023/07/05 08:15:58;;;;;;;4.73;1.90;;;18.00;59.70;;;;;;5102266;28;20434;-76
2023/07/05 08:18:25;;;;;;;2.47;1.70;;;18.10;59.80;;;;;;5092109;28;20424;-74
2023/07/05 08:20:54;;;;;;;2.90;1.73;;;18.50;59.20;;;;;;5097560;28;20532;-74
2023/07/05 08:23:20;;;;;;;3.77;2.20;;;18.80;57.70;;;;;;5103335;28;20433;-76
2023/07/05 08:25:54;;;;;;;3.83;2.00;;;18.90;57.00;;;;;;5077748;28;20414;-78
2023/07/05 08:28:25;;;;;;;2.57;1.50;;;19.10;57.20;;;;;;5061192;28;20188;-78
2023/07/05 08:30:55;;;;;;;2.63;1.30;;;19.30;56.10;;;;;;5087074;28;20901;-77
2023/07/05 08:33:23;;;;;;;3.33;1.80;;;19.40;54.90;;;;;;5110629;28;20433;-76
2023/07/05 08:36:10;;;;;;;4.60;1.70;;;19.40;55.10;;;;;;5077666;28;20410;-78
2023/07/05 08:38:43;;;;;;;3.20;1.60;;;19.10;55.20;;;;;;5101512;28;20905;-77
2023/07/05 08:41:28;;;;;;;5.27;2.00;;;18.90;55.50;;;;;;5079437;28;20465;-76
2023/07/05 08:43:58;;;;;;;2.23;1.40;;;18.70;55.70;;;;;;5089930;28;20952;-77
2023/07/05 08:46:26;;;;;;;3.27;1.50;;;18.70;55.60;;;;;;5108310;28;20406;-79
2023/07/05 08:48:59;;;;;;;4.40;1.70;;;18.70;55.70;;;;;;5135794;28;20450;-76
2023/07/05 08:51:26;;;;;;;3.00;1.60;;;18.80;56.00;;;;;;5116122;28;20468;-77
2023/07/05 08:53:56;;;;;;;4.77;2.03;;;18.80;55.70;;;;;;5114429;28;20377;-75
2023/07/05 08:56:27;;;;;;;5.60;1.90;;;19.00;55.40;;;;;;5103418;28;20434;-76
2023/07/05 08:59:06;;;;;;;3.07;1.87;;;19.20;55.70;;;;;;5101919;28;20502;-76
2023/07/05 09:01:39;;;;;;;3.40;1.57;;;19.40;53.90;;;;;;5072399;28;20455;-76
2023/07/05 09:04:12;;;;;;;2.77;1.40;;;19.50;53.70;;;;;;5076676;28;20470;-74
2023/07/05 09:06:49;;;;;;;2.87;1.53;;;19.60;53.60;;;;;;5102550;28;20422;-77
2023/07/05 09:09:38;;;;;;;2.63;1.57;;;19.80;53.30;;;;;;5094979;28;20783;-74
2023/07/05 09:12:20;;;;;;;3.50;1.93;;;19.90;52.90;;;;;;5080952;28;20469;-77
2023/07/05 09:15:29;;;;;;;4.37;1.77;;;20.00;52.70;;;;;;5093818;28;20427;-77
2023/07/05 09:18:16;;;;;;;4.53;1.80;;;20.10;52.30;;;;;;5009423;28;20454;-77
2023/07/05 09:20:45;;;;;;;4.83;1.67;;;20.30;52.00;;;;;;5114799;28;20457;-78
2023/07/05 09:23:17;;;;;;;4.43;1.50;;;20.50;51.30;;;;;;5104621;28;20414;-78
2023/07/05 09:25:47;;;;;;;3.63;1.83;;;20.60;50.40;;;;;;5084868;28;20479;-79
2023/07/05 09:28:24;;;;;;;3.13;1.60;;;20.80;49.40;;;;;;5083815;28;20467;-77
2023/07/05 09:30:52;;;;;;;6.90;1.93;;;20.90;49.00;;;;;;5086412;28;20734;-78
2023/07/05 09:33:30;;;;;;;5.73;1.73;;;20.90;48.90;;;;;;5065304;28;20487;-78
2023/07/05 09:36:04;;;;;;;5.00;2.17;;;20.60;49.00;;;;;;5065865;28;20367;-80
2023/07/05 09:38:35;;;;;;;4.03;1.70;;;20.60;49.80;;;;;;5078444;28;20435;-77
2023/07/05 09:41:14;;;;;;;5.50;2.37;;;20.80;49.20;;;;;;5097826;28;20451;-78
2023/07/05 09:43:39;;;;;;;2.00;1.40;;;21.00;48.20;;;;;;5076547;28;20862;-76
2023/07/05 09:46:14;;;;;;;4.20;1.90;;;21.10;48.20;;;;;;5079009;28;20436;-76
2023/07/05 09:48:43;;;;;;;10.30;2.20;;;21.20;47.80;;;;;;5111119;28;20234;-75
2023/07/05 09:51:11;;;;;;;6.00;1.83;;;21.00;47.90;;;;;;5111427;28;20445;-74
2023/07/05 09:53:51;;;;;;;6.60;2.10;;;21.20;47.90;;;;;;5112992;28;20493;-77
2023/07/05 09:56:27;;;;;;;6.80;1.70;;;21.30;47.20;;;;;;5128175;28;20409;-73
2023/07/05 09:59:05;;;;;;;5.00;2.13;;;21.20;47.20;;;;;;5094913;28;20431;-77
2023/07/05 10:01:31;;;;;;;6.93;1.83;;;21.20;47.70;;;;;;5073180;28;20493;-76
2023/07/05 10:04:02;;;;;;;2.60;1.67;;;21.30;47.10;;;;;;5081609;28;20457;-78
2023/07/05 10:06:28;;;;;;;3.87;1.90;;;21.30;46.90;;;;;;5114528;28;20413;-75
2023/07/05 10:08:56;;;;;;;6.67;2.10;;;21.40;47.00;;;;;;5113138;28;20490;-77
2023/07/05 10:11:43;;;;;;;5.33;1.80;;;21.30;46.70;;;;;;5106982;28;20419;-76
2023/07/05 10:14:10;;;;;;;5.87;1.70;;;21.30;47.10;;;;;;5114628;28;20465;-78
2023/07/05 10:16:52;;;;;;;6.53;1.77;;;21.60;46.50;;;;;;5078518;28;20498;-78
2023/07/05 10:19:31;;;;;;;4.90;1.50;;;21.90;45.70;;;;;;5057510;28;20439;-77
2023/07/05 10:22:06;;;;;;;5.10;1.80;;;21.90;44.70;;;;;;5073450;28;20474;-75
2023/07/05 10:24:40;;;;;;;2.10;1.40;;;21.90;44.60;;;;;;5094434;28;20409;-76
2023/07/05 10:27:21;;;;;;;4.67;2.03;;;21.80;45.50;;;;;;5102116;28;20440;-77
2023/07/05 10:29:57;;;;;;;4.57;2.40;;;21.90;45.20;;;;;;5080898;28;20465;-76
2023/07/05 10:32:23;;;;;;;6.23;2.40;;;22.00;44.90;;;;;;5059029;28;20407;-79
2023/07/05 10:34:50;;;;;;;5.50;2.20;;;22.10;45.00;;;;;;5130846;28;20422;-77
2023/07/05 10:37:33;;;;;;;5.40;2.03;;;22.20;44.90;;;;;;5132818;28;20187;-78
2023/07/05 10:40:08;;;;;;;3.10;1.60;;;22.30;44.20;;;;;;5096889;28;20491;-79
2023/07/05 10:42:50;;;;;;;8.70;2.27;;;22.30;43.70;;;;;;5113056;28;20473;-77
2023/07/05 10:45:19;;;;;;;4.73;1.63;;;22.20;43.00;;;;;;5082552;28;20492;-78
2023/07/05 10:47:54;;;;;;;4.90;3.17;;;22.30;42.70;;;;;;5084498;28;20422;-79
2023/07/05 10:50:32;;;;;;;9.17;1.87;;;22.10;42.30;;;;;;5094027;28;20473;-77
2023/07/05 10:53:12;;;;;;;4.13;1.93;;;22.10;42.90;;;;;;5075157;28;20434;-77
2023/07/05 10:55:58;;;;;;;3.93;1.93;;;22.10;43.50;;;;;;5073331;28;20406;-75
2023/07/05 10:58:35;;;;;;;4.40;1.73;;;22.20;42.90;;;;;;5070552;28;20493;-77
2023/07/05 11:01:19;;;;;;;7.97;1.87;;;22.40;43.00;;;;;;5110232;28;20474;-79
2023/07/05 11:03:58;;;;;;;4.90;1.67;;;22.60;42.70;;;;;;5074864;28;20442;-78
2023/07/05 11:06:26;;;;;;;4.53;1.97;;;22.70;42.10;;;;;;5076703;28;20417;-79
2023/07/05 11:08:52;;;;;;;6.00;1.93;;;22.70;42.20;;;;;;5111942;28;20440;-78
2023/07/05 11:11:21;;;;;;;7.97;1.90;;;22.60;42.00;;;;;;5113980;28;20413;-78
2023/07/05 11:13:48;;;;;;;6.53;2.03;;;22.40;42.20;;;;;;5098581;28;20187;-78
2023/07/05 11:16:25;;;;;;;6.07;2.00;;;22.30;42.20;;;;;;5108911;28;20402;-76
2023/07/05 11:18:58;;;;;;;5.33;1.87;;;22.40;41.80;;;;;;5078816;28;20889;-79
2023/07/05 11:21:34;;;;;;;3.37;2.10;;;22.50;42.10;;;;;;5112722;28;20496;-79
2023/07/05 11:24:00;;;;;;;5.70;1.97;;;22.60;42.20;;;;;;5094198;28;20431;-77
2023/07/05 11:26:45;;;;;;;6.47;2.40;;;22.60;42.30;;;;;;5077731;28;20423;-78
2023/07/05 11:29:30;;;;;;;5.13;1.87;;;22.50;42.70;;;;;;5075485;28;20438;-76
2023/07/05 11:32:02;;;;;;;3.87;2.27;;;22.60;42.50;;;;;;5075024;28;20460;-76
2023/07/05 11:34:29;;;;;;;5.00;2.20;;;22.50;43.00;;;;;;5085531;28;20491;-79
2023/07/05 11:37:01;;;;;;;7.23;2.20;;;22.30;42.60;;;;;;5100274;28;20738;-79
2023/07/05 11:39:34;;;;;;;3.90;1.70;;;22.20;43.10;;;;;;5116449;28;20437;-77
2023/07/05 11:42:12;;;;;;;4.23;1.73;;;22.20;43.00;;;;;;5133240;28;20462;-78
2023/07/05 11:44:40;;;;;;;5.80;3.00;;;22.20;42.50;;;;;;5130628;28;20401;-78
2023/07/05 11:47:10;;;;;;;7.90;1.77;;;22.30;41.90;;;;;;5076757;28;20419;-78
2023/07/05 11:49:42;;;;;;;3.63;1.73;;;22.20;42.20;;;;;;5073707;28;20415;-79
2023/07/05 11:52:15;;;;;;;3.43;1.70;;;22.10;42.00;;;;;;5090344;28;20494;-78
2023/07/05 11:54:53;;;;;;;4.50;1.57;;;22.00;42.40;;;;;;5093523;28;20417;-78
2023/07/05 11:57:19;;;;;;;3.90;2.47;;;22.00;42.90;;;;;;5079729;28;20457;-76
2023/07/05 11:59:52;;;;;;;3.63;2.47;;;22.20;43.10;;;;;;5061501;28;20431;-77
2023/07/05 12:02:35;;;;;;;6.33;2.20;;;22.40;43.20;;;;;;5098190;28;20533;-79
2023/07/05 12:05:09;;;;;;;5.83;2.40;;;22.80;42.80;;;;;;5097261;28;20481;-77
2023/07/05 12:07:36;;;;;;;5.27;2.27;;;22.90;43.30;;;;;;5095795;28;20413;-75
2023/07/05 12:10:04;;;;;;;3.93;1.83;;;23.10;42.10;;;;;;5115920;28;20409;-77
2023/07/05 12:12:37;;;;;;;10.33;2.20;;;22.90;41.60;;;;;;5117868;28;20398;-78
2023/07/05 12:15:03;;;;;;;5.77;2.07;;;22.70;42.10;;;;;;5089569;28;20439;-79
2023/07/05 12:17:30;;;;;;;4.63;2.27;;;22.60;41.40;;;;;;5060958;28;20403;-78
2023/07/05 12:19:57;;;;;;;3.70;2.27;;;22.40;42.10;;;;;;5115316;28;20449;-78
2023/07/05 12:22:25;;;;;;;8.73;2.97;;;22.50;42.40;;;;;;5101352;28;20453;-78
2023/07/05 12:24:56;;;;;;;5.20;1.70;;;22.70;42.70;;;;;;5083172;28;20440;-77
2023/07/05 12:27:31;;;;;;;5.67;2.60;;;22.70;42.50;;;;;;5078046;28;20435;-77
2023/07/05 12:29:59;;;;;;;6.63;3.43;;;22.50;43.30;;;;;;5067456;28;20422;-78
2023/07/05 12:32:28;;;;;;;5.10;2.10;;;22.30;44.80;;;;;;5098724;28;20418;-78
2023/07/05 12:35:14;;;;;;;6.30;2.40;;;22.20;45.00;;;;;;5085432;28;20402;-76
2023/07/05 12:37:40;;;;;;;4.87;2.20;;;22.30;45.00;;;;;;5099284;28;20554;-77
2023/07/05 12:40:22;;;;;;;7.67;3.17;;;22.20;45.60;;;;;;5112908;28;20446;-79
2023/07/05 12:42:51;;;;;;;10.73;3.33;;;22.10;46.60;;;;;;5081983;28;20285;-77
2023/07/05 12:45:37;;;;;;;8.73;2.43;;;21.90;47.50;;;;;;5088342;28;20431;-78
2023/07/05 12:48:13;;;;;;;7.30;3.07;;;21.90;47.80;;;;;;5095403;28;20410;-75
2023/07/05 12:50:39;;;;;;;8.53;2.80;;;22.10;47.70;;;;;;5061006;28;20454;-78
2023/07/05 12:53:11;;;;;;;5.30;2.20;;;22.00;47.50;;;;;;5081318;28;20411;-78
2023/07/05 12:55:39;;;;;;;4.50;2.70;;;21.80;47.70;;;;;;5097368;28;20606;-76
2023/07/05 12:58:06;;;;;;;6.57;2.30;;;21.70;47.80;;;;;;5078144;28;20411;-78
2023/07/05 13:00:34;;;;;;;3.10;2.00;;;21.50;48.50;;;;;;5077830;28;20447;-75